Terminal Aerodrome Forecast
Issued by NWS

Home | Current Version | Previous Version | Text Only | Print | Product List | Glossary On
Versions: 1 2 3 4 5 6 7 8 9 10 11 12 13 14 15 16 17 18 19 20 21 22 23 24 25 26 27 28 29 30
000
FTUS41 KBTV 240538
TAFSLK
TAF
KSLK 240538Z 2406/2506 21013G22KT P6SM -RA OVC021 WS020/23055KT
     FM241100 20008KT P6SM -RA OVC008 WS020/23035KT
     FM241200 21006KT 4SM -RA BR OVC009
     FM242000 27009KT 2SM -SN BR OVC013
     FM242300 27012KT P6SM VCSH BKN015=

USA.gov is the U.S. government's official web portal to all federal, state and local government web resources and services.